Corral De Lorca, Argentina
Current Conditions -  °F | °C
As of 2:00 PM on Sunday 23 Nov 2014 (Local Time) from SAME Reporting Station
Few Clouds Few Clouds  
Wind Chill: 88°   Ceiling: Unl
Heat Index: 88°   Visibility: 6mi
Dew Point: 46°   Wind: 9mph
Humidity: 24%   Direction: 20°NNE
Pressure: 29.62"   Gusts: 22mph
Location:  34.7°S, 67.05°W
Report Text: SAME 231700Z 02008G19KT 9999 FEW050TCU 31/08 Q1003
Loading
Personal Weather Stations






























Interactive Weather Map New forecast layout! Learn more

10-Day Weather Forecast

Advertisements
Track Severe Weather on mobile